Time;durP1;ratioP1;P1;durP2;ratioP2;P2;SDS_P1;SDS_P2;PMS_P1;PMS_P2;Temp;Humidity;BMP_temperature;BMP_pressure;BME280_temperature;BME280_humidity;BME280_pressure;Samples;Min_cycle;Max_cycle;Signal;HPM_P1;HPM_P2
2021/03/26 00:02:23;;;;;;;;;;;;;;;-144.01;100.00;62166.59;5075759;28;19913;-67
2021/03/26 00:04:50;;;;;;;;;;;;;;;-144.01;100.00;62166.59;5093363;28;19919;-67
2021/03/26 00:07:17;;;;;;;;;;;;;;;-144.01;100.00;62166.59;5095902;28;19924;-67
2021/03/26 00:09:44;;;;;;;;;;;;;;;-144.01;100.00;62166.59;5096247;28;20250;-67
2021/03/26 00:12:12;;;;;;;;;;;;;;;-144.01;100.00;62166.59;5082724;28;19912;-67
2021/03/26 00:14:39;;;;;;;;;;;;;;;-144.01;100.00;62166.59;5075722;28;20222;-66
2021/03/26 00:17:06;;;;;;;;;;;;;;;-144.01;100.00;62166.59;5075735;28;19912;-64
2021/03/26 00:19:33;;;;;;;;;;;;;;;-144.01;100.00;62166.59;5075455;28;20222;-65
2021/03/26 00:22:01;;;;;;;;;;;;;;;-144.01;100.00;62166.59;5074888;28;19923;-65
2021/03/26 00:24:28;;;;;;;;;;;;;;;-144.01;100.00;62166.59;5075010;28;20285;-66
2021/03/26 00:26:55;;;;;;;;;;;;;;;-144.01;100.00;62166.59;5075093;28;19920;-66
2021/03/26 00:29:22;;;;;;;;;;;;;;;-144.01;100.00;62166.59;5075191;28;19919;-66
2021/03/26 00:31:49;;;;;;;;;;;;;;;-144.01;100.00;62166.59;5078862;28;19943;-66
2021/03/26 00:34:27;;;;;;;;;;;;;;;-144.01;100.00;62166.59;5093156;28;19912;-67
2021/03/26 00:36:53;;;;;;;;;;;;;;;-144.01;100.00;62166.59;5088764;28;19927;-65
2021/03/26 00:39:20;;;;;;;;;;;;;;;-144.01;100.00;62166.59;5079162;28;19942;-65
2021/03/26 00:41:47;;;;;;;;;;;;;;;-144.01;100.00;62166.59;5078845;28;19915;-67
2021/03/26 00:44:14;;;;;;;;;;;;;;;-144.01;100.00;62166.59;5079042;28;19919;-67
2021/03/26 00:46:42;;;;;;;;;;;;;;;-144.01;100.00;62166.59;5078937;28;20314;-62
2021/03/26 00:49:09;;;;;;;;;;;;;;;-144.01;100.00;62166.59;5078977;28;20295;-65
2021/03/26 00:51:36;;;;;;;;;;;;;;;-144.01;100.00;62166.59;5077979;28;19916;-66
2021/03/26 00:54:04;;;;;;;;;;;;;;;-144.01;100.00;62166.59;5061099;28;20234;-63
2021/03/26 00:56:31;;;;;;;;;;;;;;;-144.01;100.00;62166.59;5079014;28;20250;-65
2021/03/26 00:58:58;;;;;;;;;;;;;;;-144.01;100.00;62166.59;5078784;28;19913;-64
2021/03/26 01:01:25;;;;;;;;;;;;;;;-144.01;100.00;62166.59;5078664;28;19927;-65
2021/03/26 01:03:52;;;;;;;;;;;;;;;-144.01;100.00;62166.59;5078415;28;19916;-66
2021/03/26 01:06:20;;;;;;;;;;;;;;;-144.01;100.00;62166.59;5078433;28;19916;-67
2021/03/26 01:08:47;;;;;;;;;;;;;;;-144.01;100.00;62166.59;5061030;28;19923;-66
2021/03/26 01:11:25;;;;;;;;;;;;;;;-144.01;100.00;62166.59;5078347;28;19913;-65
2021/03/26 01:13:52;;;;;;;;;;;;;;;-144.01;100.00;62166.59;5078614;28;19920;-66
2021/03/26 01:16:23;;;;;;;;;;;;;;;-144.01;100.00;62166.59;5078508;28;19931;-66
2021/03/26 01:18:53;;;;;;;;;;;;;;;-144.01;100.00;62166.59;5078546;28;20345;-67
2021/03/26 01:21:23;;;;;;;;;;;;;;;-144.01;100.00;62166.59;5078158;28;20350;-66
2021/03/26 01:23:50;;;;;;;;;;;;;;;-144.01;100.00;62166.59;5078388;28;19912;-67
2021/03/26 01:26:17;;;;;;;;;;;;;;;-144.01;100.00;62166.59;5078433;28;19916;-64
2021/03/26 01:28:47;;;;;;;;;;;;;;;-144.01;100.00;62166.59;5060824;28;20314;-66
2021/03/26 01:31:23;;;;;;;;;;;;;;;-144.01;100.00;62166.59;5073374;28;19912;-66
2021/03/26 01:33:51;;;;;;;;;;;;;;;-144.01;100.00;62166.59;5068863;28;19927;-65
2021/03/26 01:36:19;;;;;;;;;;;;;;;-144.01;100.00;62166.59;5087270;28;19946;-66
2021/03/26 01:38:46;;;;;;;;;;;;;;;-144.01;100.00;62166.59;5119036;28;20001;-67
2021/03/26 01:41:15;;;;;;;;;;;;;;;-144.01;100.00;62166.59;5097169;28;19919;-67
2021/03/26 01:43:43;;;;;;;;;;;;;;;-144.01;100.00;62166.59;5080672;28;19912;-67
2021/03/26 01:46:11;;;;;;;;;;;;;;;-144.01;100.00;62166.59;5080789;28;19918;-67
2021/03/26 01:48:42;;;;;;;;;;;;;;;-144.01;100.00;62166.59;5098590;28;20226;-66
2021/03/26 01:51:17;;;;;;;;;;;;;;;-144.01;100.00;62166.59;5080357;28;19919;-67
2021/03/26 01:53:45;;;;;;;;;;;;;;;-144.01;100.00;62166.59;5097802;28;19919;-62
2021/03/26 01:56:12;;;;;;;;;;;;;;;-144.01;100.00;62166.59;5079413;28;19911;-66
2021/03/26 01:58:51;;;;;;;;;;;;;;;-144.01;100.00;62166.59;5085655;28;19912;-67
2021/03/26 02:01:25;;;;;;;;;;;;;;;-144.01;100.00;62166.59;5100621;28;19918;-67
2021/03/26 02:03:53;;;;;;;;;;;;;;;-144.01;100.00;62166.59;5081632;28;19912;-65
2021/03/26 02:06:22;;;;;;;;;;;;;;;-144.01;100.00;62166.59;5096415;28;19919;-67
2021/03/26 02:08:51;;;;;;;;;;;;;;;-144.01;100.00;62166.59;5080695;28;19923;-66
2021/03/26 02:11:32;;;;;;;;;;;;;;;-144.01;100.00;62166.59;5097949;28;19912;-66
2021/03/26 02:14:00;;;;;;;;;;;;;;;-144.01;100.00;62166.59;5063418;28;19919;-65
2021/03/26 02:16:31;;;;;;;;;;;;;;;-144.01;100.00;62166.59;5080339;28;19915;-64
2021/03/26 02:19:35;;;;;;;;;;;;;;;-144.01;100.00;62166.59;5080133;28;19912;-66
2021/03/26 02:22:03;;;;;;;;;;;;;;;-144.01;100.00;62166.59;5097953;28;20333;-66
2021/03/26 02:24:30;;;;;;;;;;;;;;;-144.01;100.00;62166.59;5097413;28;19919;-67
2021/03/26 02:27:00;;;;;;;;;;;;;;;-144.01;100.00;62166.59;5097474;28;20345;-66
2021/03/26 02:29:28;;;;;;;;;;;;;;;-144.01;100.00;62166.59;5096806;28;19912;-66
2021/03/26 02:32:03;;;;;;;;;;;;;;;-144.01;100.00;62166.59;5097550;28;19919;-66
2021/03/26 02:34:31;;;;;;;;;;;;;;;-144.01;100.00;62166.59;5097529;28;19937;-67
2021/03/26 02:37:05;;;;;;;;;;;;;;;-144.01;100.00;62166.59;5093441;28;19920;-67
2021/03/26 02:39:40;;;;;;;;;;;;;;;-144.01;100.00;62166.59;5079676;28;19912;-68
2021/03/26 02:42:18;;;;;;;;;;;;;;;-144.01;100.00;62166.59;5079025;28;19919;-67
2021/03/26 02:45:05;;;;;;;;;;;;;;;-144.01;100.00;62166.59;5096603;28;19912;-66
2021/03/26 02:47:45;;;;;;;;;;;;;;;-144.01;100.00;62166.59;5080602;28;20234;-67
2021/03/26 02:50:27;;;;;;;;;;;;;;;-144.01;100.00;62166.59;5096834;28;19971;-68
2021/03/26 02:53:06;;;;;;;;;;;;;;;-144.01;100.00;62166.59;5075184;28;19921;-67
2021/03/26 02:55:33;;;;;;;;;;;;;;;-144.01;100.00;62166.59;5075147;28;19912;-67
2021/03/26 02:58:13;;;;;;;;;;;;;;;-144.01;100.00;62166.59;5075756;28;19927;-67
2021/03/26 03:00:55;;;;;;;;;;;;;;;-144.01;100.00;62166.59;5075732;28;19913;-67
2021/03/26 03:03:23;;;;;;;;;;;;;;;-144.01;100.00;62166.59;5075734;28;20298;-66
2021/03/26 03:05:56;;;;;;;;;;;;;;;-144.01;100.00;62166.59;5076417;28;19912;-67
2021/03/26 03:08:33;;;;;;;;;;;;;;;-144.01;100.00;62166.59;5092979;28;19920;-67
2021/03/26 03:11:17;;;;;;;;;;;;;;;-144.01;100.00;62166.59;5080704;28;19919;-66
2021/03/26 03:14:02;;;;;;;;;;;;;;;-144.01;100.00;62166.59;5067547;28;19912;-66
2021/03/26 03:16:29;;;;;;;;;;;;;;;-144.01;100.00;62166.59;5095612;28;19916;-63
2021/03/26 03:19:15;;;;;;;;;;;;;;;-144.01;100.00;62166.59;5096499;28;19916;-66
2021/03/26 03:21:50;;;;;;;;;;;;;;;-144.01;100.00;62166.59;5075919;28;19912;-67
2021/03/26 03:24:17;;;;;;;;;;;;;;;-144.01;100.00;62166.59;5075165;28;19923;-67
2021/03/26 03:27:04;;;;;;;;;;;;;;;-144.01;100.00;62166.59;5075487;28;19916;-65
2021/03/26 03:29:36;;;;;;;;;;;;;;;-144.01;100.00;62166.59;5075596;28;19916;-67
2021/03/26 03:32:25;;;;;;;;;;;;;;;-144.01;100.00;62166.59;5074987;28;19916;-67
2021/03/26 03:35:06;;;;;;;;;;;;;;;-144.01;100.00;62166.59;5077091;28;19920;-66
2021/03/26 03:37:52;;;;;;;;;;;;;;;-144.01;100.00;62166.59;5064959;28;19923;-66
2021/03/26 03:40:19;;;;;;;;;;;;;;;-144.01;100.00;62166.59;5078218;28;19942;-66
2021/03/26 03:43:06;;;;;;;;;;;;;;;-144.01;100.00;62166.59;5096044;28;19938;-65
2021/03/26 03:45:36;;;;;;;;;;;;;;;-144.01;100.00;62166.59;5085828;28;19916;-67
2021/03/26 03:48:08;;;;;;;;;;;;;;;-144.01;100.00;62166.59;5095404;28;19916;-67
2021/03/26 03:50:43;;;;;;;;;;;;;;;-144.01;100.00;62166.59;5078906;28;20295;-66
2021/03/26 03:53:27;;;;;;;;;;;;;;;-144.01;100.00;62166.59;5077992;28;20238;-66
2021/03/26 03:56:09;;;;;;;;;;;;;;;-144.01;100.00;62166.59;5057930;28;19919;-66
2021/03/26 03:58:37;;;;;;;;;;;;;;;-144.01;100.00;62166.59;5076083;28;19912;-66
2021/03/26 04:01:23;;;;;;;;;;;;;;;-144.01;100.00;62166.59;5063917;28;19919;-67
2021/03/26 04:03:51;;;;;;;;;;;;;;;-144.01;100.00;62166.59;5078554;28;19915;-67
2021/03/26 04:06:21;;;;;;;;;;;;;;;-144.01;100.00;62166.59;5065261;28;19926;-67
2021/03/26 04:08:54;;;;;;;;;;;;;;;-144.01;100.00;62166.59;5099353;28;19924;-67
2021/03/26 04:11:41;;;;;;;;;;;;;;;-144.01;100.00;62166.59;5075417;28;19919;-67
2021/03/26 04:14:23;;;;;;;;;;;;;;;-144.01;100.00;62166.59;5062496;28;19916;-67
2021/03/26 04:16:52;;;;;;;;;;;;;;;-144.01;100.00;62166.59;5062492;28;19919;-67
2021/03/26 04:19:22;;;;;;;;;;;;;;;-144.01;100.00;62166.59;5062622;28;20222;-67
2021/03/26 04:22:00;;;;;;;;;;;;;;;-144.01;100.00;62166.59;5054197;28;19919;-66
2021/03/26 04:24:42;;;;;;;;;;;;;;;-144.01;100.00;62166.59;5071305;28;19912;-66
2021/03/26 04:27:33;;;;;;;;;;;;;;;-144.01;100.00;62166.59;5078437;28;19921;-67
2021/03/26 04:30:26;;;;;;;;;;;;;;;-144.01;100.00;62166.59;5078687;28;19916;-67
2021/03/26 04:33:04;;;;;;;;;;;;;;;-144.01;100.00;62166.59;5098794;28;19912;-68
2021/03/26 04:35:31;;;;;;;;;;;;;;;-144.01;100.00;62166.59;5078975;28;20203;-67
2021/03/26 04:38:15;;;;;;;;;;;;;;;-144.01;100.00;62166.59;5081078;28;20207;-67
2021/03/26 04:40:47;;;;;;;;;;;;;;;-144.01;100.00;62166.59;5080469;28;19912;-65
2021/03/26 04:43:31;;;;;;;;;;;;;;;-144.01;100.00;62166.59;5061342;28;19920;-67
2021/03/26 04:46:09;;;;;;;;;;;;;;;-144.01;100.00;62166.59;5062226;28;19923;-67
2021/03/26 04:48:48;;;;;;;;;;;;;;;-144.01;100.00;62166.59;5061091;28;19947;-66
2021/03/26 04:51:31;;;;;;;;;;;;;;;-144.01;100.00;62166.59;5069778;28;19918;-67
2021/03/26 04:54:27;;;;;;;;;;;;;;;-144.01;100.00;62166.59;5084463;28;20249;-67
2021/03/26 04:57:22;;;;;;;;;;;;;;;-144.01;100.00;62166.59;5061265;28;19912;-66
2021/03/26 04:59:51;;;;;;;;;;;;;;;-144.01;100.00;62166.59;5061025;28;20334;-66
2021/03/26 05:02:21;;;;;;;;;;;;;;;-144.01;100.00;62166.59;5088669;28;19912;-67
2021/03/26 05:04:51;;;;;;;;;;;;;;;-144.01;100.00;62166.59;5090571;28;19919;-65
2021/03/26 05:07:22;;;;;;;;;;;;;;;-144.01;100.00;62166.59;5081273;28;19920;-67
2021/03/26 05:09:54;;;;;;;;;;;;;;;-144.01;100.00;62166.59;5081905;28;19912;-63
2021/03/26 05:12:32;;;;;;;;;;;;;;;-144.01;100.00;62166.59;5050516;28;19919;-60
2021/03/26 05:15:08;;;;;;;;;;;;;;;-144.01;100.00;62166.59;5077275;28;19912;-49
2021/03/26 05:17:45;;;;;;;;;;;;;;;-144.01;100.00;62166.59;5044684;28;19916;-59
2021/03/26 05:20:23;;;;;;;;;;;;;;;-144.01;100.00;62166.59;5045509;28;20299;-53
2021/03/26 05:23:33;;;;;;;;;;;;;;;-144.01;100.00;62166.59;5077870;28;19920;-64
2021/03/26 05:26:19;;;;;;;;;;;;;;;-144.01;100.00;62166.59;5060986;28;20251;-57
2021/03/26 05:29:06;;;;;;;;;;;;;;;-144.01;100.00;62166.59;5066974;28;19920;-65
2021/03/26 05:31:44;;;;;;;;;;;;;;;-144.01;100.00;62166.59;5060393;28;19912;-47
2021/03/26 05:34:36;;;;;;;;;;;;;;;-144.01;100.00;62166.59;5077162;28;19919;-57
2021/03/26 05:37:12;;;;;;;;;;;;;;;-144.01;100.00;62166.59;5076726;28;20247;-49
2021/03/26 05:40:11;;;;;;;;;;;;;;;-144.01;100.00;62166.59;5056999;28;19920;-54
2021/03/26 05:43:03;;;;;;;;;;;;;;;-144.01;100.00;62166.59;5077586;28;20207;-58
2021/03/26 05:45:42;;;;;;;;;;;;;;;-144.01;100.00;62166.59;5045138;28;19913;-53
2021/03/26 05:48:55;;;;;;;;;;;;;;;-144.01;100.00;62166.59;5044138;28;19920;-54
2021/03/26 05:51:23;;;;;;;;;;;;;;;-144.01;100.00;62166.59;5060110;28;19912;-55
2021/03/26 05:53:59;;;;;;;;;;;;;;;-144.01;100.00;62166.59;5063365;28;19912;-48
2021/03/26 05:56:59;;;;;;;;;;;;;;;-144.01;100.00;62166.59;5080143;28;20226;-48
2021/03/26 05:59:33;;;;;;;;;;;;;;;-144.01;100.00;62166.59;5097019;28;20321;-50
2021/03/26 06:02:28;;;;;;;;;;;;;;;-144.01;100.00;62166.59;5096618;28;20230;-48
2021/03/26 06:05:25;;;;;;;;;;;;;;;-144.01;100.00;62166.59;5079626;28;20317;-61
2021/03/26 06:08:15;;;;;;;;;;;;;;;-144.01;100.00;62166.59;5046504;28;20360;-52
2021/03/26 06:11:19;;;;;;;;;;;;;;;-144.01;100.00;62166.59;5097589;28;19911;-57
2021/03/26 06:14:12;;;;;;;;;;;;;;;-144.01;100.00;62166.59;5076894;28;19916;-68
2021/03/26 06:17:09;;;;;;;;;;;;;;;-144.01;100.00;62166.59;5064234;28;19920;-68
2021/03/26 06:20:13;;;;;;;;;;;;;;;-144.01;100.00;62166.59;5077331;28;19919;-69
2021/03/26 06:23:27;;;;;;;;;;;;;;;-144.01;100.00;62166.59;5066503;28;19920;-68
2021/03/26 06:26:24;;;;;;;;;;;;;;;-144.01;100.00;62166.59;5059740;28;19919;-68
2021/03/26 06:29:14;;;;;;;;;;;;;;;-144.01;100.00;62166.59;5041667;28;19920;-69
2021/03/26 06:31:59;;;;;;;;;;;;;;;-144.01;100.00;62166.59;5045733;28;19916;-68
2021/03/26 06:35:00;;;;;;;;;;;;;;;-144.01;100.00;62166.59;5076527;28;19919;-68
2021/03/26 06:37:30;;;;;;;;;;;;;;;-144.01;100.00;62166.59;5076030;28;20352;-69
2021/03/26 06:40:16;;;;;;;;;;;;;;;-144.01;100.00;62166.59;5113372;28;20375;-68
2021/03/26 06:42:46;;;;;;;;;;;;;;;-144.01;100.00;62166.59;5103892;28;19919;-69
2021/03/26 06:45:18;;;;;;;;;;;;;;;-144.01;100.00;62166.59;5097449;28;19912;-69
2021/03/26 06:47:50;;;;;;;;;;;;;;;-144.01;100.00;62166.59;5097449;28;19923;-69
2021/03/26 06:50:37;;;;;;;;;;;;;;;-144.01;100.00;62166.59;5079622;28;19919;-69
2021/03/26 06:53:04;;;;;;;;;;;;;;;-144.01;100.00;62166.59;5055457;28;19919;-68
2021/03/26 06:55:46;;;;;;;;;;;;;;;-144.01;100.00;62166.59;5097179;28;20238;-68
2021/03/26 06:58:16;;;;;;;;;;;;;;;-144.01;100.00;62166.59;5097195;28;19912;-68
2021/03/26 07:01:01;;;;;;;;;;;;;;;-144.01;100.00;62166.59;5097247;28;20298;-69
2021/03/26 07:03:46;;;;;;;;;;;;;;;-144.01;100.00;62166.59;5096709;28;19916;-68
2021/03/26 07:06:16;;;;;;;;;;;;;;;-144.01;100.00;62166.59;5096090;28;19912;-68
2021/03/26 07:08:43;;;;;;;;;;;;;;;-144.01;100.00;62166.59;5097120;28;19920;-68
2021/03/26 07:11:18;;;;;;;;;;;;;;;-144.01;100.00;62166.59;5097010;28;19919;-68
2021/03/26 07:14:15;;;;;;;;;;;;;;;-144.01;100.00;62166.59;5096401;28;19919;-69
2021/03/26 07:16:45;;;;;;;;;;;;;;;-144.01;100.00;62166.59;5025583;28;19913;-51
2021/03/26 07:19:21;;;;;;;;;;;;;;;-144.01;100.00;62166.59;5096142;28;19930;-48
2021/03/26 07:22:07;;;;;;;;;;;;;;;-144.01;100.00;62166.59;5109152;28;19915;-49
2021/03/26 07:24:34;;;;;;;;;;;;;;;-144.01;100.00;62166.59;5096539;28;19911;-50
2021/03/26 07:27:04;;;;;;;;;;;;;;;-144.01;100.00;62166.59;5096533;28;19927;-59
2021/03/26 07:29:57;;;;;;;;;;;;;;;-144.01;100.00;62166.59;5095541;28;19916;-51
2021/03/26 07:32:44;;;;;;;;;;;;;;;-144.01;100.00;62166.59;5082572;28;19911;-51
2021/03/26 07:35:30;;;;;;;;;;;;;;;-144.01;100.00;62166.59;5105589;28;19918;-51
2021/03/26 07:37:57;;;;;;;;;;;;;;;-144.01;100.00;62166.59;5116766;28;19920;-60
2021/03/26 07:40:33;;;;;;;;;;;;;;;-144.01;100.00;62166.59;5115941;28;19911;-55
2021/03/26 07:43:13;;;;;;;;;;;;;;;-144.01;100.00;62166.59;5116655;28;19942;-49
2021/03/26 07:45:46;;;;;;;;;;;;;;;-144.01;100.00;62166.59;5116751;28;20298;-53
2021/03/26 07:48:31;;;;;;;;;;;;;;;-144.01;100.00;62166.59;5116612;28;19919;-52
2021/03/26 07:51:04;;;;;;;;;;;;;;;-144.01;100.00;62166.59;5116270;28;19911;-53
2021/03/26 07:53:43;;;;;;;;;;;;;;;-144.01;100.00;62166.59;5098284;28;19912;-50
2021/03/26 07:56:23;;;;;;;;;;;;;;;-144.01;100.00;62166.59;5116340;28;20203;-49
2021/03/26 07:59:16;;;;;;;;;;;;;;;-144.01;100.00;62166.59;5116584;28;19911;-57
2021/03/26 08:01:49;;;;;;;;;;;;;;;-144.01;100.00;62166.59;5101231;28;20353;-56
2021/03/26 08:04:19;;;;;;;;;;;;;;;-144.01;100.00;62166.59;5096097;28;19916;-49
2021/03/26 08:07:05;;;;;;;;;;;;;;;-144.01;100.00;62166.59;5095677;28;19911;-48
2021/03/26 08:09:50;;;;;;;;;;;;;;;-144.01;100.00;62166.59;5096090;28;19920;-53
2021/03/26 08:12:23;;;;;;;;;;;;;;;-144.01;100.00;62166.59;5095764;28;19919;-56
2021/03/26 08:15:25;;;;;;;;;;;;;;;-144.01;100.00;62166.59;5096107;28;20341;-54
2021/03/26 08:17:52;;;;;;;;;;;;;;;-144.01;100.00;62166.59;5014029;28;20291;-54
2021/03/26 08:20:38;;;;;;;;;;;;;;;-144.01;100.00;62166.59;5078930;28;19916;-50
2021/03/26 08:23:05;;;;;;;;;;;;;;;-144.01;100.00;62166.59;5095529;28;19916;-47
2021/03/26 08:25:42;;;;;;;;;;;;;;;-144.01;100.00;62166.59;5095904;28;20203;-49
2021/03/26 08:28:09;;;;;;;;;;;;;;;-144.01;100.00;62166.59;5078197;28;19924;-60
2021/03/26 08:30:54;;;;;;;;;;;;;;;-144.01;100.00;62166.59;5096034;28;19919;-66
2021/03/26 08:33:40;;;;;;;;;;;;;;;-144.01;100.00;62166.59;5095840;28;20217;-67
2021/03/26 08:36:25;;;;;;;;;;;;;;;-144.01;100.00;62166.59;5095608;28;19923;-67
2021/03/26 08:39:11;;;;;;;;;;;;;;;-144.01;100.00;62166.59;5096055;28;19920;-67
2021/03/26 08:41:41;;;;;;;;;;;;;;;-144.01;100.00;62166.59;5088385;28;19912;-56
2021/03/26 08:44:10;;;;;;;;;;;;;;;-144.01;100.00;62166.59;5057301;28;19916;-54
2021/03/26 08:46:37;;;;;;;;;;;;;;;-144.01;100.00;62166.59;5058013;28;19912;-67
2021/03/26 08:49:10;;;;;;;;;;;;;;;-144.01;100.00;62166.59;5070049;28;20235;-67
2021/03/26 08:51:49;;;;;;;;;;;;;;;-144.01;100.00;62166.59;5077191;28;19917;-67
2021/03/26 08:54:28;;;;;;;;;;;;;;;-144.01;100.00;62166.59;5081266;28;19920;-67
2021/03/26 08:57:14;;;;;;;;;;;;;;;-144.01;100.00;62166.59;5081682;28;19916;-66
2021/03/26 08:59:46;;;;;;;;;;;;;;;-144.01;100.00;62166.59;5099595;28;19915;-66
2021/03/26 09:02:13;;;;;;;;;;;;;;;-144.01;100.00;62166.59;5069989;28;19912;-67
2021/03/26 09:04:43;;;;;;;;;;;;;;;-144.01;100.00;62166.59;5079055;28;19916;-67
2021/03/26 09:07:17;;;;;;;;;;;;;;;-144.01;100.00;62166.59;5078671;28;20323;-67
2021/03/26 09:09:50;;;;;;;;;;;;;;;-144.01;100.00;62166.59;5078984;28;20246;-62
2021/03/26 09:12:17;;;;;;;;;;;;;;;-144.01;100.00;62166.59;5078698;28;19919;-66
2021/03/26 09:14:59;;;;;;;;;;;;;;;-144.01;100.00;62166.59;5078656;28;19912;-68
2021/03/26 09:17:29;;;;;;;;;;;;;;;-144.01;100.00;62166.59;5078938;28;19912;-67
2021/03/26 09:20:07;;;;;;;;;;;;;;;-144.01;100.00;62166.59;5078806;28;19916;-67
2021/03/26 09:22:49;;;;;;;;;;;;;;;-144.01;100.00;62166.59;5070848;28;19916;-67
2021/03/26 09:25:24;;;;;;;;;;;;;;;-144.01;100.00;62166.59;5088185;28;19923;-65
2021/03/26 09:27:53;;;;;;;;;;;;;;;-144.01;100.00;62166.59;5081256;28;19912;-67
2021/03/26 09:30:22;;;;;;;;;;;;;;;-144.01;100.00;62166.59;5081141;28;19920;-67
2021/03/26 09:32:53;;;;;;;;;;;;;;;-144.01;100.00;62166.59;5074569;28;20231;-66
2021/03/26 09:35:23;;;;;;;;;;;;;;;-144.01;100.00;62166.59;5061431;28;19923;-67
2021/03/26 09:37:57;;;;;;;;;;;;;;;-144.01;100.00;62166.59;5078141;28;19935;-67
2021/03/26 09:40:26;;;;;;;;;;;;;;;-144.01;100.00;62166.59;5093716;28;19912;-67
2021/03/26 09:43:11;;;;;;;;;;;;;;;-144.01;100.00;62166.59;5093573;28;19923;-65
2021/03/26 09:45:39;;;;;;;;;;;;;;;-144.01;100.00;62166.59;5077111;28;19912;-67
2021/03/26 09:48:38;;;;;;;;;;;;;;;-144.01;100.00;62166.59;5077954;28;20242;-67
2021/03/26 09:51:07;;;;;;;;;;;;;;;-144.01;100.00;62166.59;5076941;28;19913;-65
2021/03/26 09:53:38;;;;;;;;;;;;;;;-144.01;100.00;62166.59;5080359;28;20234;-63
2021/03/26 09:56:07;;;;;;;;;;;;;;;-144.01;100.00;62166.59;5080260;28;20203;-65
2021/03/26 09:58:42;;;;;;;;;;;;;;;-144.01;100.00;62166.59;5097080;28;19916;-67
2021/03/26 10:01:10;;;;;;;;;;;;;;;-144.01;100.00;62166.59;5096816;28;19912;-67
2021/03/26 10:04:00;;;;;;;;;;;;;;;-144.01;100.00;62166.59;5079926;28;19919;-67
2021/03/26 10:06:46;;;;;;;;;;;;;;;-144.01;100.00;62166.59;5081313;28;19919;-67
2021/03/26 10:12:16;;;;;;;;;;;;;;;-144.01;100.00;62166.59;5077255;28;20239;-66
2021/03/26 10:14:45;;;;;;;;;;;;;;;-144.01;100.00;62166.59;5077570;28;20295;-67
2021/03/26 10:17:11;;;;;;;;;;;;;;;-144.01;100.00;62166.59;5077417;28;20235;-64
2021/03/26 10:19:46;;;;;;;;;;;;;;;-144.01;100.00;62166.59;5077403;28;19927;-67
2021/03/26 10:22:19;;;;;;;;;;;;;;;-144.01;100.00;62166.59;5042837;28;19919;-67
2021/03/26 10:24:47;;;;;;;;;;;;;;;-144.01;100.00;62166.59;5063714;28;19923;-66
2021/03/26 10:27:22;;;;;;;;;;;;;;;-144.01;100.00;62166.59;5079757;28;19911;-67
2021/03/26 10:29:52;;;;;;;;;;;;;;;-144.01;100.00;62166.59;5079758;28;19916;-66
2021/03/26 10:32:21;;;;;;;;;;;;;;;-144.01;100.00;62166.59;5082832;28;19912;-67
2021/03/26 10:34:48;;;;;;;;;;;;;;;-144.01;100.00;62166.59;5042891;28;19919;-67
2021/03/26 10:37:27;;;;;;;;;;;;;;;-144.01;100.00;62166.59;5064958;28;19931;-67
2021/03/26 10:40:08;;;;;;;;;;;;;;;-144.01;100.00;62166.59;5077249;28;19912;-66
2021/03/26 10:42:39;;;;;;;;;;;;;;;-144.01;100.00;62166.59;5070461;28;19911;-67
2021/03/26 10:45:20;;;;;;;;;;;;;;;;;;5113856;27;19962;-69
2021/03/26 10:47:47;;;;;;;;;;;;;;;;;;5113937;28;19912;-68
2021/03/26 10:50:14;;;;;;;;;;;;;;;;;;5113729;28;19919;-68
2021/03/26 10:52:40;;;;;;;;;;;;;;;;;;5113324;28;19939;-69
2021/03/26 10:55:10;;;;;;;;;;;;;;;;;;5119983;28;20281;-69
2021/03/26 10:57:37;;;;;;;;;;;;;;;;;;5134205;27;20238;-68
2021/03/26 11:00:03;;;;;;;;;;;;;;;;;;5134143;27;19919;-68
2021/03/26 11:02:30;;;;;;;;;;;;;;;;;;5123604;27;19927;-69
2021/03/26 11:04:56;;;;;;;;;;;;;;;;;;5114216;28;19920;-68
2021/03/26 11:07:24;;;;;;;;;;;;;;;;;;5133909;27;19916;-70
2021/03/26 11:09:50;;;;;;;;;;;;;;;;;;5134033;27;20238;-70
2021/03/26 11:12:17;;;;;;;;;;;;;;;;;;5125746;27;19912;-71
2021/03/26 11:14:43;;;;;;;;;;;;;;;;;;5113347;28;19927;-69
2021/03/26 11:17:10;;;;;;;;;;;;;;;;;;5113149;28;19950;-69
2021/03/26 11:19:37;;;;;;;;;;;;;;;;;;5113180;28;20323;-68
2021/03/26 11:22:03;;;;;;;;;;;;;;;;;;5111924;28;19912;-67
2021/03/26 11:24:30;;;;;;;;;;;;;;;;;;5113378;28;19920;-67
2021/03/26 11:26:56;;;;;;;;;;;;;;;;;;5133535;27;19919;-68
2021/03/26 11:29:23;;;;;;;;;;;;;;;;;;5133597;27;19912;-69
2021/03/26 11:31:50;;;;;;;;;;;;;;;;;;5129049;27;19920;-67
2021/03/26 11:34:17;;;;;;;;;;;;;;;;;;5095098;28;19919;-65
2021/03/26 11:36:43;;;;;;;;;;;;;;;;;;5110945;28;19912;-62
2021/03/26 11:39:10;;;;;;;;;;;;;;;;;;5095176;28;19916;-69
2021/03/26 11:41:37;;;;;;;;;;;;;;;;;;5112430;28;19919;-62
2021/03/26 11:44:03;;;;;;;;;;;;;;;;;;5111757;28;19924;-70
2021/03/26 11:46:30;;;;;;;;;;;;;;;;;;5112840;28;19916;-70
2021/03/26 11:48:56;;;;;;;;;;;;;;;;;;5112833;28;19916;-71
2021/03/26 11:51:23;;;;;;;;;;;;;;;;;;5112766;28;20379;-71
2021/03/26 11:53:49;;;;;;;;;;;;;;;;;;5112627;28;19923;-70
2021/03/26 11:56:16;;;;;;;;;;;;;;;;;;5101101;28;19919;-70
2021/03/26 11:58:43;;;;;;;;;;;;;;;;;;5099405;28;19916;-70
2021/03/26 12:01:09;;;;;;;;;;;;;;;;;;5099170;28;20565;-71
2021/03/26 12:03:36;;;;;;;;;;;;;;;;;;5099283;28;19916;-70
2021/03/26 12:06:03;;;;;;;;;;;;;;;;;;5108826;28;19918;-70
2021/03/26 12:08:29;;;;;;;;;;;;;;;;;;5108759;27;19916;-57
2021/03/26 12:10:56;;;;;;;;;;;;;;;;;;5098433;28;19919;-57
2021/03/26 12:13:22;;;;;;;;;;;;;;;;;;5098508;28;20254;-53
2021/03/26 12:15:49;;;;;;;;;;;;;;;;;;5098502;28;20299;-54
2021/03/26 12:18:15;;;;;;;;;;;;;;;;;;5098824;28;19916;-48
2021/03/26 12:20:42;;;;;;;;;;;;;;;;;;5094232;28;19920;-56
2021/03/26 12:23:08;;;;;;;;;;;;;;;;;;5078246;28;20196;-55
2021/03/26 12:25:35;;;;;;;;;;;;;;;;;;5087421;28;19912;-52
2021/03/26 12:28:01;;;;;;;;;;;;;;;;;;5098637;28;19912;-55
2021/03/26 12:30:28;;;;;;;;;;;;;;;;;;5098511;28;19919;-54
2021/03/26 12:32:55;;;;;;;;;;;;;;;;;;5098384;28;19912;-57
2021/03/26 12:35:21;;;;;;;;;;;;;;;;;;5102360;28;19922;-60
2021/03/26 12:37:48;;;;;;;;;;;;;;;;;;5118787;28;19912;-55
2021/03/26 12:40:14;;;;;;;;;;;;;;;;;;5117346;28;20325;-51
2021/03/26 12:42:41;;;;;;;;;;;;;;;;;;5118477;28;20227;-53
2021/03/26 12:45:08;;;;;;;;;;;;;;;;;;5112816;27;19931;-65
2021/03/26 12:47:34;;;;;;;;;;;;;;;;;;5105036;28;19912;-53
2021/03/26 12:50:01;;;;;;;;;;;;;;;;;;5113792;28;19924;-47
2021/03/26 12:52:28;;;;;;;;;;;;;;;;;;5078523;28;19919;-64
2021/03/26 12:54:54;;;;;;;;;;;;;;;;;;5097403;28;19913;-79
2021/03/26 12:57:21;;;;;;;;;;;;;;;;;;5097636;28;20226;-55
2021/03/26 12:59:47;;;;;;;;;;;;;;;;;;5097664;28;19916;-55
2021/03/26 13:02:14;;;;;;;;;;;;;;;;;;5097424;28;20562;-55
2021/03/26 13:04:41;;;;;;;;;;;;;;;;;;5097175;28;20204;-54
2021/03/26 13:07:07;;;;;;;;;;;;;;;;;;5115505;28;19912;-57
2021/03/26 13:09:34;;;;;;;;;;;;;;;;;;5117873;28;19912;-55
2021/03/26 13:12:01;;;;;;;;;;;;;;;;;;5117697;28;20222;-55
2021/03/26 13:14:27;;;;;;;;;;;;;;;;;;5117729;28;19916;-56
2021/03/26 13:16:54;;;;;;;;;;;;;;;;;;5098647;28;19919;-57
2021/03/26 13:19:20;;;;;;;;;;;;;;;;;;5097202;28;20361;-55
2021/03/26 13:21:48;;;;;;;;;;;;;;;;;;5097020;28;19923;-55
2021/03/26 13:24:15;;;;;;;;;;;;;;;;;;5096003;28;19931;-64
2021/03/26 13:26:41;;;;;;;;;;;;;;;;;;5093341;28;19916;-55
2021/03/26 13:29:08;;;;;;;;;;;;;;;;;;5097091;28;19919;-54
2021/03/26 13:31:35;;;;;;;;;;;;;;;;;;5096957;28;19912;-55
2021/03/26 13:34:01;;;;;;;;;;;;;;;;;;5096922;28;20239;-53
2021/03/26 13:36:28;;;;;;;;;;;;;;;;;;5110294;28;20306;-56
2021/03/26 13:38:54;;;;;;;;;;;;;;;;;;5117157;28;19916;-58
2021/03/26 13:41:21;;;;;;;;;;;;;;;;;;5116040;28;20305;-55
2021/03/26 13:43:47;;;;;;;;;;;;;;;;;;5129588;27;20319;-57
2021/03/26 13:46:14;;;;;;;;;;;;;;;;;;5096393;28;20333;-56
2021/03/26 13:48:41;;;;;;;;;;;;;;;;;;5096781;28;20341;-60